La Grande Lulu — LGLULU — position and weather

sailwx.info

Track history (hours):
 
Tides and Currents Weather Stations Pressure Air Temp Water Temp Dewpoint Dewpoint Depression Visibility Wind Speed Wind Dir Waves Ship Positions

La Grande Lulu

Last reported at 2017-Aug-29 19:12 UTC. Time now 2017-Sep-21 10:46 UTC.
Position N 47°23' W 002°33'.
Warning: this ship's position is 22 days out of date.

Length 12 m.

Type: Sailing vessel. MMSI: 227096360.

Date/timePositionNaut miles runAvg speedWind from/ knotsBaromVisibWave heightAir tempDewpointWater temp
2017-Aug-29 19:12N 47°23' W 002°33'0 0.0
2017-Aug-27 18:31N 47°23' W 002°33'0 0.4
2017-Aug-27 18:30N 47°23' W 002°33'2 3.4
2017-Aug-27 17:59N 47°23' W 002°35'3 5.7
2017-Aug-27 17:29N 47°23' W 002°39'3 5.9
2017-Aug-27 17:00N 47°22' W 002°43'3 6.1
2017-Aug-27 16:29N 47°22' W 002°48'2 5.0
2017-Aug-27 16:00N 47°21' W 002°51'1 0.2
2017-Aug-27 11:03N 47°21' W 002°53'0 3.4
2017-Aug-27 11:00N 47°21' W 002°53'3 4.9
2017-Aug-27 10:29N 47°22' W 002°50'2 4.4
2017-Aug-27 10:00N 47°24' W 002°48'2 4.1
2017-Aug-27 09:29N 47°24' W 002°45'3 5.6
2017-Aug-27 09:00N 47°24' W 002°41'3 6.0
2017-Aug-27 08:27N 47°24' W 002°36'  
2017-Aug-23 17:56N 47°24' W 002°34'3 6.2
2017-Aug-23 17:29N 47°24' W 002°39'  
Track history (hours):
 
Tides and Currents Weather Stations Pressure Air Temp Water Temp Dewpoint Dewpoint Depression Visibility Wind Speed Wind Dir Waves Ship Positions

La Grande Lulu

Last reported at 2017-Aug-29 19:12 UTC. Time now 2017-Sep-21 10:46 UTC.
Position N 47°23' W 002°33'.
Warning: this ship's position is 22 days out of date.

Length 12 m.

Type: Sailing vessel. MMSI: 227096360.

Date/timePositionNaut miles runAvg speedWind from/ knotsBaromVisibWave heightAir tempDewpointWater temp
2017-Aug-29 19:12N 47°23' W 002°33'0 0.0
2017-Aug-27 18:31N 47°23' W 002°33'0 0.4
2017-Aug-27 18:30N 47°23' W 002°33'2 3.4
2017-Aug-27 17:59N 47°23' W 002°35'3 5.7
2017-Aug-27 17:29N 47°23' W 002°39'3 5.9
2017-Aug-27 17:00N 47°22' W 002°43'3 6.1
2017-Aug-27 16:29N 47°22' W 002°48'2 5.0
2017-Aug-27 16:00N 47°21' W 002°51'1 0.2
2017-Aug-27 11:03N 47°21' W 002°53'0 3.4
2017-Aug-27 11:00N 47°21' W 002°53'3 4.9
2017-Aug-27 10:29N 47°22' W 002°50'2 4.4
2017-Aug-27 10:00N 47°24' W 002°48'2 4.1
2017-Aug-27 09:29N 47°24' W 002°45'3 5.6
2017-Aug-27 09:00N 47°24' W 002°41'3 6.0
2017-Aug-27 08:27N 47°24' W 002°36'  
2017-Aug-23 17:56N 47°24' W 002°34'3 6.2
2017-Aug-23 17:29N 47°24' W 002°39'  

Dump ship's entire track history